Time;durP1;ratioP1;P1;durP2;ratioP2;P2;SDS_P1;SDS_P2;PMS_P1;PMS_P2;Temp;Humidity;BMP_temperature;BMP_pressure;BME280_temperature;BME280_humidity;BME280_pressure;Samples;Min_cycle;Max_cycle;Signal;HPM_P1;HPM_P2
2022/04/12 00:00:37;;;;;;;6.35;5.43;;;;;;;3.77;58.15;101005.28;5020805;28;20025;-26
2022/04/12 00:03:03;;;;;;;6.07;5.45;;;;;;;3.76;58.45;101000.91;5021162;28;20056;-25
2022/04/12 00:05:28;;;;;;;6.45;5.45;;;;;;;3.74;58.15;100999.13;5026330;28;20388;-25
2022/04/12 00:07:54;;;;;;;6.78;5.80;;;;;;;3.70;58.50;101006.88;5023418;28;20594;-24
2022/04/12 00:10:20;;;;;;;7.13;5.57;;;;;;;3.66;58.33;100999.81;5022625;28;20025;-25
2022/04/12 00:12:46;;;;;;;7.65;5.95;;;;;;;3.65;58.25;101010.22;5016935;28;20064;-25
2022/04/12 00:15:12;;;;;;;6.43;5.72;;;;;;;3.60;58.15;101002.25;5023547;28;20049;-25
2022/04/12 00:20:24;;;;;;;7.38;5.75;;;;;;;3.52;58.28;100999.47;5022551;28;20032;-24
2022/04/12 00:22:50;;;;;;;9.13;6.10;;;;;;;3.49;58.48;101004.63;5019684;28;20049;-25
2022/04/12 00:25:15;;;;;;;6.55;5.70;;;;;;;3.45;58.22;101006.28;5023161;28;20032;-25
2022/04/12 00:27:41;;;;;;;9.07;6.03;;;;;;;3.42;58.27;101003.59;5016855;28;20030;-25
2022/04/12 00:30:09;;;;;;;7.20;6.10;;;;;;;3.38;58.39;100988.69;5024131;28;20108;-26
2022/04/12 00:32:35;;;;;;;8.93;5.97;;;;;;;3.36;58.29;101003.41;5019626;28;20030;-25
2022/04/12 00:35:01;;;;;;;6.82;5.95;;;;;;;3.32;58.81;100998.97;5022704;28;20034;-26
2022/04/12 00:37:27;;;;;;;7.57;6.07;;;;;;;3.30;58.52;100998.06;5026976;28;20486;-26
2022/04/12 00:39:53;;;;;;;9.88;6.68;;;;;;;3.28;58.46;101002.34;5025676;28;20266;-25
2022/04/12 00:42:18;;;;;;;6.25;5.65;;;;;;;3.25;58.73;100994.44;5022618;28;20056;-25
2022/04/12 00:44:44;;;;;;;6.78;5.80;;;;;;;3.21;58.79;100994.34;5020021;28;20120;-24
2022/04/12 00:47:09;;;;;;;7.57;6.70;;;;;;;3.18;58.50;100983.84;5025666;28;20036;-24
2022/04/12 00:49:35;;;;;;;7.53;5.97;;;;;;;3.16;58.83;100985.53;5026335;28;20025;-24
2022/04/12 00:52:00;;;;;;;6.70;6.00;;;;;;;3.12;58.65;100975.88;5021046;28;20499;-24
2022/04/12 00:54:28;;;;;;;9.32;6.80;;;;;;;3.09;58.97;100973.16;5022479;28;20108;-25
2022/04/12 00:56:54;;;;;;;7.75;5.88;;;;;;;3.06;58.84;100978.28;5024121;28;20419;-24
2022/04/12 00:59:20;;;;;;;8.32;6.60;;;;;;;3.02;59.00;100977.34;5018813;28;20022;-23
2022/04/12 01:01:45;;;;;;;8.40;6.47;;;;;;;3.01;59.09;100987.72;5022643;28;20025;-26
2022/04/12 01:04:11;;;;;;;8.75;6.35;;;;;;;2.98;58.99;100985.03;5021925;28;20021;-24
2022/04/12 01:06:37;;;;;;;9.52;6.45;;;;;;;2.95;58.97;100983.22;5022851;28;20502;-25
2022/04/12 01:09:05;;;;;;;6.72;5.85;;;;;;;2.91;59.21;100982.28;5025352;28;20037;-25
2022/04/12 01:11:34;;;;;;;6.97;6.20;;;;;;;2.89;59.21;100981.34;5027300;28;20032;-24
2022/04/12 01:14:00;;;;;;;8.45;6.28;;;;;;;2.87;59.35;100983.00;5015684;28;20045;-26
2022/04/12 01:16:26;;;;;;;8.57;5.93;;;;;;;2.84;59.49;100980.34;5026453;28;20026;-24
2022/04/12 01:18:51;;;;;;;8.00;5.72;;;;;;;2.82;59.53;100985.50;5025612;28;20021;-25
2022/04/12 01:21:16;;;;;;;7.50;5.65;;;;;;;2.80;59.18;100975.88;5016260;28;20045;-24
2022/04/12 01:23:49;;;;;;;9.38;6.28;;;;;;;2.76;59.32;100974.00;5021046;28;20029;-25
2022/04/12 01:26:15;;;;;;;7.60;6.15;;;;;;;2.74;59.32;100970.50;5025925;28;20037;-25
2022/04/12 01:28:44;;;;;;;6.20;5.45;;;;;;;2.69;59.31;100963.44;5023503;28;20105;-26
2022/04/12 01:31:10;;;;;;;8.70;5.88;;;;;;;2.68;59.37;100961.69;5018570;28;20032;-25
2022/04/12 01:33:35;;;;;;;6.95;5.88;;;;;;;2.66;59.40;100952.03;5021728;28;20033;-25
2022/04/12 01:36:01;;;;;;;9.10;6.43;;;;;;;2.63;59.27;100952.84;5016654;28;20037;-25
2022/04/12 01:38:28;;;;;;;7.60;6.75;;;;;;;2.61;59.62;100964.94;5022366;28;20100;-24
2022/04/12 01:40:53;;;;;;;8.77;6.03;;;;;;;2.59;59.46;100965.72;5022858;28;20551;-24
2022/04/12 01:43:19;;;;;;;8.40;6.25;;;;;;;2.55;59.41;100965.66;5023279;28;20052;-25
2022/04/12 01:45:44;;;;;;;6.80;5.57;;;;;;;2.53;59.55;100956.91;5023016;28;20044;-25
2022/04/12 01:48:09;;;;;;;7.60;5.57;;;;;;;2.51;59.57;100947.28;5027164;28;20502;-25
2022/04/12 01:50:35;;;;;;;7.13;5.80;;;;;;;2.49;59.60;100955.06;5025192;28;20106;-24
2022/04/12 01:53:00;;;;;;;8.23;5.93;;;;;;;2.46;59.50;100948.88;5023942;28;20025;-25
2022/04/12 01:55:26;;;;;;;8.73;6.95;;;;;;;2.43;59.42;100950.56;5028977;28;20426;-25
2022/04/12 01:57:51;;;;;;;7.63;6.28;;;;;;;2.41;59.70;100948.75;5029858;28;20052;-25
2022/04/12 02:00:17;;;;;;;7.70;5.93;;;;;;;2.38;59.66;100936.53;5031900;28;20211;-25
2022/04/12 02:02:42;;;;;;;6.93;6.10;;;;;;;2.36;59.65;100948.59;5029452;28;20107;-25
2022/04/12 02:05:08;;;;;;;6.95;6.25;;;;;;;2.35;59.45;100948.56;5028410;28;20109;-26
2022/04/12 02:07:34;;;;;;;7.38;6.32;;;;;;;2.31;59.42;100940.66;5025230;28;20219;-25
2022/04/12 02:09:59;;;;;;;7.65;6.07;;;;;;;2.30;59.78;100941.50;5032014;28;20025;-24
2022/04/12 02:12:24;;;;;;;8.35;6.65;;;;;;;2.27;60.06;100935.34;5026143;28;20028;-24
2022/04/12 02:14:50;;;;;;;9.13;7.03;;;;;;;2.24;59.83;100932.63;5021670;28;20021;-25
2022/04/12 02:17:15;;;;;;;9.93;6.78;;;;;;;2.21;60.08;100938.63;5023008;28;20025;-26
2022/04/12 02:19:41;;;;;;;6.43;5.78;;;;;;;2.20;60.01;100933.38;5026547;28;20514;-25
2022/04/12 02:22:07;;;;;;;8.27;6.47;;;;;;;2.18;60.14;100934.22;5026228;28;20403;-26
2022/04/12 02:24:33;;;;;;;6.85;6.13;;;;;;;2.17;59.70;100927.25;5025786;28;20030;-24
2022/04/12 02:26:58;;;;;;;7.47;5.95;;;;;;;2.15;60.03;100928.03;5023839;28;20037;-25
2022/04/12 02:29:24;;;;;;;6.45;5.82;;;;;;;2.15;59.92;100941.03;5031144;28;20041;-25
2022/04/12 02:31:49;;;;;;;7.18;6.00;;;;;;;2.12;60.08;100933.13;5020528;28;20033;-25
2022/04/12 02:34:14;;;;;;;8.05;6.05;;;;;;;2.12;60.05;100936.63;5026007;28;20033;-25
2022/04/12 02:36:40;;;;;;;7.10;5.90;;;;;;;2.09;59.93;100938.25;5024422;28;20446;-26
2022/04/12 02:39:05;;;;;;;5.80;5.20;;;;;;;2.08;60.18;100940.00;5020309;28;20120;-24
2022/04/12 02:41:31;;;;;;;6.15;5.55;;;;;;;2.03;60.26;100934.63;5024590;28;20033;-25
2022/04/12 02:43:56;;;;;;;7.85;6.05;;;;;;;2.03;60.41;100942.44;5026204;28;20017;-25
2022/04/12 02:46:22;;;;;;;7.75;6.15;;;;;;;2.00;60.20;100944.94;5025813;28;20037;-24
2022/04/12 02:48:47;;;;;;;7.50;6.32;;;;;;;2.00;60.27;100938.88;5023691;28;20387;-25
2022/04/12 02:51:13;;;;;;;6.93;5.80;;;;;;;1.98;60.47;100943.13;5029725;28;20112;-25
2022/04/12 02:53:38;;;;;;;6.82;5.88;;;;;;;1.96;60.55;100944.81;5025239;28;20025;-25
2022/04/12 02:56:04;;;;;;;7.28;6.20;;;;;;;1.93;60.47;100943.00;5027059;28;20033;-24
2022/04/12 02:58:29;;;;;;;7.47;6.68;;;;;;;1.92;60.51;100959.44;5024141;28;20018;-25
2022/04/12 03:00:55;;;;;;;7.00;6.13;;;;;;;1.91;60.59;100952.47;5023870;28;20038;-23
2022/04/12 03:03:20;;;;;;;8.45;6.10;;;;;;;1.89;60.69;100949.81;5025192;28;20036;-24
2022/04/12 03:05:46;;;;;;;9.45;6.75;;;;;;;1.87;60.65;100948.88;5024462;28;20060;-26
2022/04/12 03:08:11;;;;;;;8.55;6.47;;;;;;;1.87;60.71;100948.88;5019216;28;20373;-25
2022/04/12 03:10:37;;;;;;;7.65;6.72;;;;;;;1.85;60.70;100944.47;5003855;28;20029;-23
2022/04/12 03:13:02;;;;;;;7.65;6.40;;;;;;;1.83;60.70;100947.03;5020157;28;20040;-25
2022/04/12 03:15:27;;;;;;;7.47;6.60;;;;;;;1.82;60.46;100946.97;5023730;28;20025;-25
2022/04/12 03:17:53;;;;;;;8.38;6.60;;;;;;;1.78;60.30;100943.41;5020839;28;20025;-25
2022/04/12 03:20:18;;;;;;;8.07;6.85;;;;;;;1.77;60.38;100941.66;5027156;28;20049;-25
2022/04/12 03:22:44;;;;;;;8.48;6.90;;;;;;;1.75;60.38;100945.91;5025595;28;20037;-24
2022/04/12 03:25:10;;;;;;;7.53;5.93;;;;;;;1.74;60.26;100944.16;5021711;28;20037;-25
2022/04/12 03:27:35;;;;;;;7.65;6.07;;;;;;;1.72;60.40;100940.59;5021599;28;20507;-25
2022/04/12 03:30:02;;;;;;;8.07;6.25;;;;;;;1.70;60.69;100947.50;5022836;28;20029;-25
2022/04/12 03:32:27;;;;;;;7.43;6.13;;;;;;;1.67;60.61;100941.34;5027619;28;20025;-25
2022/04/12 03:34:53;;;;;;;7.40;6.15;;;;;;;1.66;60.65;100942.19;5021489;28;20044;-25
2022/04/12 03:37:18;;;;;;;8.68;6.45;;;;;;;1.63;60.33;100930.78;5021354;28;20025;-26
2022/04/12 03:39:45;;;;;;;8.65;7.05;;;;;;;1.63;60.86;100928.19;5023632;28;20033;-26
2022/04/12 03:42:11;;;;;;;10.15;6.72;;;;;;;1.62;60.80;100936.81;5021966;28;20108;-27
2022/04/12 03:44:37;;;;;;;9.32;6.47;;;;;;;1.59;60.22;100941.94;5017775;28;20025;-27
2022/04/12 03:47:03;;;;;;;7.38;6.60;;;;;;;1.59;60.74;100936.72;5020560;28;20034;-27
2022/04/12 03:49:29;;;;;;;8.23;5.90;;;;;;;1.58;60.48;100942.75;5022720;28;20125;-27
2022/04/12 03:51:54;;;;;;;6.72;6.03;;;;;;;1.55;60.74;100935.75;5025144;28;20147;-27
2022/04/12 03:54:19;;;;;;;9.77;6.65;;;;;;;1.53;60.41;100942.59;5023611;28;20105;-28
2022/04/12 03:56:45;;;;;;;8.65;7.20;;;;;;;1.52;60.22;100938.25;5024874;28;20029;-27
2022/04/12 03:59:11;;;;;;;10.40;6.75;;;;;;;1.49;60.70;100938.16;5024228;28;20398;-27
2022/04/12 04:01:37;;;;;;;10.57;7.22;;;;;;;1.49;60.62;100935.53;5020913;28;20038;-27
2022/04/12 04:04:02;;;;;;;9.63;6.53;;;;;;;1.47;60.84;100932.91;5017756;28;20472;-25
2022/04/12 04:06:27;;;;;;;8.43;7.05;;;;;;;1.47;60.91;100932.03;5028311;28;20032;-26
2022/04/12 04:08:53;;;;;;;8.07;6.05;;;;;;;1.46;60.71;100930.28;5025096;28;20033;-25
2022/04/12 04:11:18;;;;;;;6.70;5.68;;;;;;;1.45;60.58;100928.47;5024096;28;20415;-27
2022/04/12 04:13:44;;;;;;;8.85;6.10;;;;;;;1.42;60.87;100931.88;5018106;28;20399;-25
2022/04/12 04:16:10;;;;;;;7.68;6.63;;;;;;;1.39;60.75;100927.47;5022363;28;20049;-26
2022/04/12 04:18:35;;;;;;;8.50;6.25;;;;;;;1.38;60.71;100933.50;5019212;28;20026;-25
2022/04/12 04:21:01;;;;;;;8.13;6.35;;;;;;;1.37;60.69;100939.50;5022492;28;20030;-26
2022/04/12 04:23:27;;;;;;;7.53;6.30;;;;;;;1.36;60.81;100939.47;5020850;28;20037;-25
2022/04/12 04:25:52;;;;;;;8.35;6.32;;;;;;;1.34;60.98;100942.03;5025237;28;20030;-24
2022/04/12 04:28:29;;;;;;;8.27;5.82;;;;;;;1.35;61.04;100937.69;5021217;28;20084;-25
2022/04/12 04:30:56;;;;;;;8.30;6.53;;;;;;;1.34;60.83;100942.03;5022746;28;20038;-26
2022/04/12 04:33:21;;;;;;;6.38;5.53;;;;;;;1.32;61.17;100948.88;5023696;28;20026;-25
2022/04/12 04:35:48;;;;;;;6.03;5.47;;;;;;;1.30;60.92;100940.13;5024881;28;20387;-26
2022/04/12 04:38:13;;;;;;;5.97;5.38;;;;;;;1.29;61.23;100933.19;5022138;28;20044;-25
2022/04/12 04:40:39;;;;;;;6.15;5.22;;;;;;;1.29;60.99;100933.19;5017575;28;20022;-24
2022/04/12 04:43:05;;;;;;;6.78;5.50;;;;;;;1.27;60.89;100935.72;5016643;28;20029;-25
2022/04/12 04:45:31;;;;;;;6.65;5.75;;;;;;;1.28;61.20;100934.03;5024196;28;20034;-24
2022/04/12 04:48:00;;;;;;;8.32;6.13;;;;;;;1.27;61.30;100940.06;5019951;28;20026;-25
2022/04/12 04:50:32;;;;;;;7.00;5.10;;;;;;;1.27;61.01;100938.31;5020286;28;20045;-26
2022/04/12 04:53:00;;;;;;;6.05;5.45;;;;;;;1.26;61.24;100930.47;5023694;28;20454;-26
2022/04/12 04:55:26;;;;;;;8.40;6.07;;;;;;;1.25;61.29;100934.81;5016928;28;20282;-25
2022/04/12 04:57:56;;;;;;;5.88;5.22;;;;;;;1.25;60.95;100945.22;5026886;28;20013;-25
2022/04/12 05:00:25;;;;;;;7.00;5.85;;;;;;;1.25;61.20;100952.09;5026254;28;20041;-26
2022/04/12 05:02:52;;;;;;;9.48;6.40;;;;;;;1.25;61.50;100954.69;5026760;28;20033;-26
2022/04/12 05:05:18;;;;;;;7.28;6.07;;;;;;;1.23;61.65;100959.84;5022519;28;20025;-26
2022/04/12 05:07:51;;;;;;;6.60;5.65;;;;;;;1.26;61.22;100969.47;5026069;28;20110;-26
2022/04/12 05:10:25;;;;;;;8.60;5.60;;;;;;;1.26;61.38;100966.84;5028379;28;20292;-26
2022/04/12 05:12:51;;;;;;;9.25;6.30;;;;;;;1.26;61.23;100972.06;5021411;28;20151;-26
2022/04/12 05:15:17;;;;;;;8.27;5.70;;;;;;;1.27;61.36;100971.25;5025219;28;20113;-26
2022/04/12 05:17:49;;;;;;;7.07;5.75;;;;;;;1.27;61.18;100971.25;5020751;28;20029;-24
2022/04/12 05:20:14;;;;;;;6.10;5.50;;;;;;;1.28;61.45;100973.91;5019338;28;20116;-24
2022/04/12 05:22:40;;;;;;;7.57;6.57;;;;;;;1.31;61.35;100977.41;5003370;28;20164;-26
2022/04/12 05:25:06;;;;;;;6.85;5.70;;;;;;;1.31;61.56;100983.50;5024382;28;20082;-25
2022/04/12 05:27:32;;;;;;;6.80;5.78;;;;;;;1.31;61.17;100975.72;5019278;28;20269;-26
2022/04/12 05:30:07;;;;;;;6.90;6.07;;;;;;;1.34;61.52;100978.41;5022612;28;20423;-26
2022/04/12 05:32:36;;;;;;;6.03;5.43;;;;;;;1.35;61.51;100968.88;5021159;28;20040;-25
2022/04/12 05:35:02;;;;;;;6.78;5.55;;;;;;;1.37;61.38;100978.50;5024083;28;20030;-25
2022/04/12 05:37:29;;;;;;;7.82;6.13;;;;;;;1.39;61.63;100982.06;5025432;28;20127;-25
2022/04/12 05:39:56;;;;;;;6.95;5.60;;;;;;;1.40;61.65;100983.81;5021917;28;20399;-26
2022/04/12 05:42:25;;;;;;;6.43;5.55;;;;;;;1.44;61.71;100986.50;5016505;28;20465;-26
2022/04/12 05:44:51;;;;;;;7.35;5.65;;;;;;;1.45;61.12;100988.28;5019850;28;20022;-26
2022/04/12 05:47:16;;;;;;;6.28;5.35;;;;;;;1.49;61.46;100992.75;5022093;28;20033;-25
2022/04/12 05:49:42;;;;;;;6.63;5.57;;;;;;;1.52;61.42;101008.44;5021269;28;20426;-26
2022/04/12 05:52:08;;;;;;;6.22;5.43;;;;;;;1.54;61.27;100999.84;5023126;28;20037;-25
2022/04/12 05:54:34;;;;;;;7.07;5.32;;;;;;;1.54;61.19;101006.81;5021455;28;20087;-25
2022/04/12 05:57:00;;;;;;;6.15;5.35;;;;;;;1.58;60.91;100998.25;5022308;28;20025;-26
2022/04/12 05:59:25;;;;;;;6.80;5.38;;;;;;;1.61;61.19;100995.78;5021768;28;20036;-25
2022/04/12 06:01:51;;;;;;;7.38;6.25;;;;;;;1.64;61.42;101001.03;5022635;28;20472;-24
2022/04/12 06:04:16;;;;;;;7.13;5.35;;;;;;;1.67;61.22;101003.75;5017080;28;20065;-25
2022/04/12 06:06:42;;;;;;;6.60;5.95;;;;;;;1.71;61.69;100990.84;5023504;28;20025;-26
2022/04/12 06:09:08;;;;;;;8.25;5.20;;;;;;;1.75;62.07;100995.31;5018272;28;20037;-25
2022/04/12 06:11:34;;;;;;;8.60;5.40;;;;;;;1.82;62.03;100997.28;5025752;28;20036;-25
2022/04/12 06:14:00;;;;;;;7.43;5.70;;;;;;;1.86;62.27;101006.97;5015647;28;20537;-25
2022/04/12 06:16:25;;;;;;;7.20;5.80;;;;;;;1.91;62.46;101002.78;5023115;28;20107;-25
2022/04/12 06:18:51;;;;;;;6.20;5.28;;;;;;;1.99;62.80;101004.72;5022142;28;20030;-25
2022/04/12 06:21:17;;;;;;;7.55;5.78;;;;;;;2.07;62.39;101010.19;5019395;28;20022;-25
2022/04/12 06:23:43;;;;;;;6.43;5.63;;;;;;;2.13;63.11;101013.88;5020737;28;20511;-26
2022/04/12 06:26:09;;;;;;;7.40;6.18;;;;;;;2.21;63.11;101005.41;5025591;28;20030;-25
2022/04/12 06:28:34;;;;;;;6.88;6.05;;;;;;;2.30;63.09;101010.88;5024475;28;20440;-26
2022/04/12 06:31:00;;;;;;;6.20;5.60;;;;;;;2.37;62.65;101007.63;5023908;28;20022;-25
2022/04/12 06:33:26;;;;;;;8.50;5.55;;;;;;;2.44;62.88;101006.13;5021280;28;20124;-26
2022/04/12 06:35:52;;;;;;;6.85;5.60;;;;;;;2.53;62.97;100997.66;5028130;28;20067;-25
2022/04/12 06:38:18;;;;;;;7.13;5.85;;;;;;;2.61;63.02;101003.13;5024710;28;20100;-26
2022/04/12 06:40:45;;;;;;;7.20;6.18;;;;;;;2.71;63.06;101009.47;5027115;28;20361;-26
2022/04/12 06:43:11;;;;;;;8.27;5.95;;;;;;;2.76;62.78;101000.06;5031516;28;20029;-25
2022/04/12 06:45:37;;;;;;;7.25;5.88;;;;;;;2.86;62.85;101009.91;5021621;28;20026;-26
2022/04/12 06:48:03;;;;;;;8.93;5.95;;;;;;;2.94;63.03;101015.34;5023942;28;20034;-25
2022/04/12 06:50:29;;;;;;;6.68;5.97;;;;;;;3.02;62.54;101013.84;5024421;28;20514;-25
2022/04/12 06:52:56;;;;;;;7.13;5.68;;;;;;;3.10;62.60;101010.56;5026579;28;20021;-26
2022/04/12 06:55:22;;;;;;;7.65;6.85;;;;;;;3.20;63.29;101023.88;5023911;28;20480;-26
2022/04/12 06:57:48;;;;;;;8.13;6.00;;;;;;;3.29;63.09;101019.72;5025443;28;20115;-26
2022/04/12 07:00:14;;;;;;;10.35;7.30;;;;;;;3.41;63.18;101021.78;5026114;28;20063;-26
2022/04/12 07:02:40;;;;;;;6.80;6.03;;;;;;;3.53;63.18;101029.06;5020973;28;20483;-26
2022/04/12 07:05:07;;;;;;;10.43;7.07;;;;;;;3.65;62.98;101031.97;5022159;28;20504;-26
2022/04/12 07:07:35;;;;;;;6.80;6.05;;;;;;;3.77;62.91;101025.31;5028450;28;20391;-25
2022/04/12 07:10:00;;;;;;;7.70;6.90;;;;;;;3.89;62.95;101036.03;5028449;28;20468;-24
2022/04/12 07:12:26;;;;;;;8.35;6.25;;;;;;;4.02;62.68;101025.88;5024805;28;20103;-25
2022/04/12 07:14:52;;;;;;;8.10;6.47;;;;;;;4.15;62.98;101022.72;5024712;28;20112;-26
2022/04/12 07:17:17;;;;;;;8.60;6.30;;;;;;;4.28;62.85;101023.00;5021682;28;20025;-26
2022/04/12 07:19:44;;;;;;;6.95;6.25;;;;;;;4.41;62.70;101008.47;5026645;28;20033;-26
2022/04/12 07:22:09;;;;;;;9.40;5.82;;;;;;;4.52;63.01;101006.97;5027887;28;20397;-25
2022/04/12 07:24:35;;;;;;;7.28;6.47;;;;;;;4.66;63.04;100999.44;5024038;28;20029;-26
2022/04/12 07:27:01;;;;;;;10.80;7.28;;;;;;;4.75;62.89;100991.78;5025397;28;20022;-25
2022/04/12 07:29:27;;;;;;;6.90;6.10;;;;;;;4.89;62.59;100991.16;5023330;28;20083;-25
2022/04/12 07:31:52;;;;;;;9.15;6.55;;;;;;;5.04;62.83;100992.31;5025282;28;20022;-26
2022/04/12 07:34:18;;;;;;;8.50;6.35;;;;;;;5.16;62.53;100986.44;5027961;28;20049;-26
2022/04/12 07:36:47;;;;;;;7.82;6.35;;;;;;;5.30;62.29;100989.31;5025264;28;20053;-26
2022/04/12 07:39:16;;;;;;;6.82;6.07;;;;;;;5.43;62.32;100998.25;5021987;28;20484;-26
2022/04/12 07:41:42;;;;;;;6.80;6.10;;;;;;;5.57;62.83;100993.25;5030583;28;20409;-25
2022/04/12 07:44:07;;;;;;;7.15;6.45;;;;;;;5.68;61.88;101003.88;5024940;28;20029;-26
2022/04/12 07:46:33;;;;;;;6.57;5.47;;;;;;;5.82;62.30;100998.88;5023888;28;20021;-26
2022/04/12 07:48:58;;;;;;;6.50;5.38;;;;;;;5.96;62.41;101007.81;5026638;28;20033;-25
2022/04/12 07:51:23;;;;;;;7.22;5.93;;;;;;;6.08;63.06;101001.03;5029500;28;20021;-26
2022/04/12 07:53:49;;;;;;;7.07;6.18;;;;;;;6.23;63.24;101003.88;5023098;28;20068;-25
2022/04/12 07:56:15;;;;;;;7.57;5.90;;;;;;;6.39;63.65;101006.72;5028038;28;20071;-26
2022/04/12 07:58:40;;;;;;;7.45;5.07;;;;;;;6.51;62.61;100999.00;5030375;28;20029;-26
2022/04/12 08:01:06;;;;;;;7.88;5.68;;;;;;;6.66;63.34;100997.44;5027547;28;20076;-26
2022/04/12 08:03:31;;;;;;;6.53;5.05;;;;;;;6.79;61.99;101004.63;5027500;28;20029;-26
2022/04/12 08:05:57;;;;;;;5.55;4.88;;;;;;;6.95;64.22;101002.16;5026905;28;20100;-25
2022/04/12 08:08:22;;;;;;;7.80;5.35;;;;;;;7.09;63.72;101010.19;5030585;28;20064;-26
2022/04/12 08:10:48;;;;;;;4.75;4.35;;;;;;;7.23;63.49;101007.69;5028409;28;20029;-25
2022/04/12 08:13:14;;;;;;;5.65;5.03;;;;;;;7.37;62.53;100999.97;5026171;28;20029;-23
2022/04/12 08:15:40;;;;;;;5.82;5.15;;;;;;;7.51;63.08;100994.88;5026633;28;20022;-25
2022/04/12 08:18:05;;;;;;;6.75;5.50;;;;;;;7.66;63.29;101001.09;5025698;28;20013;-24
2022/04/12 08:20:31;;;;;;;6.93;5.20;;;;;;;7.81;63.49;101005.59;5029054;28;20025;-24
2022/04/12 08:22:57;;;;;;;5.93;5.05;;;;;;;7.97;63.12;101001.31;5027722;28;20017;-24
2022/04/12 08:25:22;;;;;;;6.55;5.13;;;;;;;8.15;63.88;100990.06;5026650;28;20152;-23
2022/04/12 08:27:48;;;;;;;5.75;5.10;;;;;;;8.32;64.12;100990.16;5029298;28;20036;-26
2022/04/12 08:30:14;;;;;;;7.95;5.35;;;;;;;8.47;62.98;100989.34;5022217;28;20495;-24
2022/04/12 08:32:39;;;;;;;6.47;4.88;;;;;;;9.03;63.93;100987.84;5022276;28;20029;-24
2022/04/12 08:35:05;;;;;;;6.78;5.25;;;;;;;9.68;62.79;100987.91;5025178;28;20044;-26
2022/04/12 08:37:31;;;;;;;5.80;5.05;;;;;;;10.57;61.70;100982.44;5026012;28;20508;-25
2022/04/12 08:39:56;;;;;;;9.55;5.80;;;;;;;11.07;57.84;100989.25;5019990;28;20102;-25
2022/04/12 08:42:22;;;;;;;8.20;5.38;;;;;;;10.63;61.16;100981.53;5020757;28;20053;-26
2022/04/12 08:44:49;;;;;;;5.88;5.28;;;;;;;10.53;60.99;100983.34;5029104;28;20080;-26
2022/04/12 08:47:16;;;;;;;6.55;4.90;;;;;;;10.57;61.27;100971.03;5023528;28;20026;-25
2022/04/12 08:49:42;;;;;;;5.60;4.50;;;;;;;10.62;61.25;100967.50;5024154;28;20029;-26
2022/04/12 08:52:12;;;;;;;6.57;4.97;;;;;;;10.73;60.97;100964.81;5027609;28;20032;-23
2022/04/12 08:54:44;;;;;;;6.50;5.25;;;;;;;10.86;61.97;100970.88;5024722;28;20037;-23
2022/04/12 08:57:11;;;;;;;4.50;4.10;;;;;;;11.00;61.15;100976.09;5020790;28;20495;-24
2022/04/12 08:59:37;;;;;;;5.13;4.63;;;;;;;11.14;61.79;100981.28;5026496;28;20033;-24
2022/04/12 09:02:03;;;;;;;6.55;4.70;;;;;;;11.29;62.44;100974.13;5023182;28;20031;-25
2022/04/12 09:04:28;;;;;;;5.05;4.60;;;;;;;11.44;62.39;100961.72;5021604;28;20022;-25
2022/04/12 09:06:56;;;;;;;5.75;3.97;;;;;;;11.59;62.26;100966.88;5028657;28;20025;-26
2022/04/12 09:09:29;;;;;;;4.93;4.32;;;;;;;11.75;62.31;100974.66;5022392;28;20385;-23
2022/04/12 09:12:06;;;;;;;5.43;4.18;;;;;;;11.94;63.38;100975.38;5019182;28;21199;-24
2022/04/12 09:14:57;;;;;;;4.15;3.75;;;;;;;12.10;61.30;100977.88;5026524;28;20562;-23
2022/04/12 09:17:36;;;;;;;4.63;4.22;;;;;;;12.26;60.96;100973.28;5025160;28;20029;-24
2022/04/12 09:20:03;;;;;;;4.03;3.60;;;;;;;12.37;60.29;100976.69;5040215;28;20026;-25
2022/04/12 09:22:31;;;;;;;4.20;3.70;;;;;;;12.52;59.68;100966.81;5023210;28;20037;-24
2022/04/12 09:24:59;;;;;;;5.32;3.47;;;;;;;12.69;60.97;100958.66;5023551;28;20387;-25
2022/04/12 09:27:30;;;;;;;4.88;3.47;;;;;;;12.84;60.53;100952.28;5024899;28;20152;-26
2022/04/12 09:29:57;;;;;;;6.28;3.65;;;;;;;13.02;61.34;100950.25;5019927;28;20484;-24
2022/04/12 09:32:24;;;;;;;5.03;3.90;;;;;;;13.18;61.70;100965.00;5022612;28;20061;-24
2022/04/12 09:34:51;;;;;;;4.60;3.35;;;;;;;13.33;60.94;100973.63;5022199;28;20025;-23
2022/04/12 09:37:21;;;;;;;3.20;2.90;;;;;;;13.45;59.30;100970.78;5028533;28;20029;-23
2022/04/12 09:40:07;;;;;;;3.30;3.00;;;;;;;13.58;57.47;100967.97;5025457;28;20029;-23
2022/04/12 09:42:44;;;;;;;4.00;2.97;;;;;;;13.67;56.63;100964.28;5020162;28;20411;-24
2022/04/12 09:45:18;;;;;;;3.50;3.20;;;;;;;13.77;56.15;100957.03;5026124;28;20032;-22
2022/04/12 09:47:46;;;;;;;3.50;3.00;;;;;;;13.90;56.65;100957.69;5026296;28;20472;-23
2022/04/12 09:50:12;;;;;;;3.22;2.85;;;;;;;14.03;57.13;100948.59;5027634;28;20041;-24
2022/04/12 09:52:39;;;;;;;2.85;2.55;;;;;;;14.16;58.00;100949.22;5023441;28;20063;-25
2022/04/12 09:55:06;;;;;;;3.67;3.33;;;;;;;14.27;57.54;100949.00;5027416;28;20064;-25
2022/04/12 09:57:32;;;;;;;8.23;3.30;;;;;;;14.39;57.64;100934.63;5019553;28;20025;-26
2022/04/12 09:59:58;;;;;;;3.97;3.10;;;;;;;14.53;57.43;100939.63;5027739;28;20037;-25
2022/04/12 10:02:24;;;;;;;4.78;3.10;;;;;;;14.62;57.14;100936.81;5031204;28;20026;-23
2022/04/12 10:04:52;;;;;;;4.30;3.33;;;;;;;14.75;57.83;100929.41;5032008;28;20033;-24
2022/04/12 10:07:19;;;;;;;3.83;3.40;;;;;;;14.91;57.84;100931.78;5032635;28;20032;-23
2022/04/12 10:09:45;;;;;;;4.55;3.30;;;;;;;15.01;57.31;100933.28;5030863;28;20061;-24
2022/04/12 10:12:11;;;;;;;6.38;3.83;;;;;;;15.07;54.89;100937.59;5031571;28;20057;-27
2022/04/12 10:14:37;;;;;;;3.58;3.28;;;;;;;15.17;54.99;100938.22;5024547;28;20480;-23
2022/04/12 10:17:04;;;;;;;4.53;3.53;;;;;;;15.30;55.14;100936.16;5027460;28;20033;-25
2022/04/12 10:19:29;;;;;;;3.67;3.38;;;;;;;15.41;55.08;100927.94;5025206;28;20388;-26
2022/04/12 10:21:55;;;;;;;6.68;3.42;;;;;;;15.51;55.54;100928.56;5023557;28;20037;-26
2022/04/12 10:24:22;;;;;;;3.40;2.97;;;;;;;15.64;55.45;100932.63;5021417;28;20033;-26
2022/04/12 10:26:48;;;;;;;4.53;3.00;;;;;;;15.70;54.05;100923.63;5024280;28;20033;-25
2022/04/12 10:29:15;;;;;;;3.63;3.33;;;;;;;15.83;54.70;100910.00;5024295;28;20103;-23
2022/04/12 10:32:06;;;;;;;3.50;3.17;;;;;;;15.96;54.25;100906.13;5023999;28;20055;-25
2022/04/12 10:34:32;;;;;;;4.20;3.80;;;;;;;16.07;54.48;100913.78;5020221;28;20046;-25
2022/04/12 10:37:09;;;;;;;3.40;3.10;;;;;;;16.18;54.80;100909.97;5023849;28;20548;-26
2022/04/12 10:39:46;;;;;;;3.67;3.38;;;;;;;16.28;53.49;100904.31;5030420;28;20069;-23
2022/04/12 10:42:17;;;;;;;4.57;3.33;;;;;;;16.39;53.67;100895.16;5022819;28;20032;-26
2022/04/12 10:44:49;;;;;;;3.80;3.40;;;;;;;16.50;53.51;100894.81;5027722;28;20095;-23
2022/04/12 10:47:25;;;;;;;3.40;3.10;;;;;;;16.59;53.41;100894.53;5026638;28;20670;-26
2022/04/12 10:50:19;;;;;;;5.28;3.22;;;;;;;16.71;52.90;100898.63;5026491;28;20040;-29
2022/04/12 10:52:48;;;;;;;3.53;3.08;;;;;;;16.80;52.46;100898.31;5019436;28;20503;-23
2022/04/12 10:55:18;;;;;;;3.53;3.20;;;;;;;16.88;52.51;100900.72;5025448;28;20038;-24
2022/04/12 10:57:44;;;;;;;3.10;2.70;;;;;;;16.99;52.42;100902.19;5019399;28;20055;-23
2022/04/12 11:00:14;;;;;;;3.58;3.13;;;;;;;17.07;52.62;100904.66;5021561;28;20601;-23
2022/04/12 11:02:58;;;;;;;3.40;3.10;;;;;;;17.17;52.84;100906.06;5021167;28;20029;-25
2022/04/12 11:05:32;;;;;;;3.08;2.88;;;;;;;17.26;53.18;100899.56;5018733;28;20120;-24
2022/04/12 11:07:59;;;;;;;4.78;3.15;;;;;;;17.32;52.46;100894.03;5017483;28;20091;-22
2022/04/12 11:10:24;;;;;;;3.55;2.97;;;;;;;17.38;51.68;100877.84;5021311;28;20030;-28
2022/04/12 11:13:03;;;;;;;3.35;3.05;;;;;;;17.48;51.52;100881.06;5025294;28;20079;-25
2022/04/12 11:15:30;;;;;;;3.78;3.10;;;;;;;17.56;51.82;100871.00;5020958;28;20273;-23
2022/04/12 11:18:15;;;;;;;3.25;2.95;;;;;;;17.66;51.07;100870.66;5019637;28;20369;-24
2022/04/12 11:20:48;;;;;;;2.83;2.50;;;;;;;17.69;50.74;100870.53;5017893;28;20030;-24
2022/04/12 11:23:14;;;;;;;4.00;3.05;;;;;;;17.73;50.13;100863.28;5021838;28;20490;-24
2022/04/12 11:25:51;;;;;;;4.05;2.95;;;;;;;17.78;49.13;100864.00;5019247;28;20026;-24
2022/04/12 11:28:24;;;;;;;3.38;2.78;;;;;;;17.87;49.36;100866.31;5024406;28;20105;-26
2022/04/12 11:30:55;;;;;;;3.35;2.80;;;;;;;17.95;49.55;100860.72;5027983;28;20026;-24
2022/04/12 11:33:23;;;;;;;3.30;3.00;;;;;;;18.03;49.70;100853.28;5024570;28;20021;-24